createdAt,value
2018-07-24T00:00:05.651Z,18.90
2018-07-24T00:01:05.845Z,18.80
2018-07-24T00:02:10.901Z,18.70
2018-07-24T00:03:08.396Z,18.70
2018-07-24T00:04:05.832Z,18.70
2018-07-24T00:05:05.873Z,18.70
2018-07-24T00:06:10.900Z,18.70
2018-07-24T00:07:06.160Z,18.70
2018-07-24T00:08:08.651Z,18.60
2018-07-24T00:09:06.366Z,18.60
2018-07-24T00:10:08.910Z,18.60
2018-07-24T00:11:05.485Z,18.60
2018-07-24T00:12:05.688Z,18.60
2018-07-24T00:13:05.897Z,18.60
2018-07-24T00:14:05.897Z,18.60
2018-07-24T00:15:07.892Z,18.60
2018-07-24T00:16:08.244Z,18.60
2018-07-24T00:17:05.635Z,18.50
2018-07-24T00:18:05.312Z,18.50
2018-07-24T00:19:08.633Z,18.50
2018-07-24T00:20:05.091Z,18.50
2018-07-24T00:21:05.384Z,18.40
2018-07-24T00:22:05.504Z,18.40
2018-07-24T00:23:05.136Z,18.40
2018-07-24T00:24:05.996Z,18.40
2018-07-24T00:25:10.850Z,18.30
2018-07-24T00:26:10.100Z,18.30
2018-07-24T00:27:08.765Z,18.20
2018-07-24T00:28:05.277Z,18.20
2018-07-24T00:29:08.563Z,18.20
2018-07-24T00:30:05.986Z,18.20
2018-07-24T00:31:08.271Z,18.20
2018-07-24T00:32:05.799Z,18.10
2018-07-24T00:33:05.471Z,18.10
2018-07-24T00:34:05.443Z,18.10
2018-07-24T00:35:05.629Z,18.10
2018-07-24T00:36:09.539Z,18.00
2018-07-24T00:37:05.943Z,18.00
2018-07-24T00:38:05.509Z,18.00
2018-07-24T00:39:10.468Z,18.00
2018-07-24T00:40:05.589Z,18.00
2018-07-24T00:41:05.792Z,18.00
2018-07-24T00:42:08.697Z,18.00
2018-07-24T00:43:05.124Z,18.00
2018-07-24T00:44:06.227Z,18.00
2018-07-24T00:45:11.004Z,18.00
2018-07-24T00:46:08.386Z,18.00
2018-07-24T00:47:08.269Z,18.00
2018-07-24T00:48:05.667Z,18.00
2018-07-24T00:49:07.931Z,17.90
2018-07-24T00:50:08.729Z,17.80
2018-07-24T00:51:07.968Z,17.80
2018-07-24T00:52:10.543Z,17.80
2018-07-24T00:53:05.458Z,17.80
2018-07-24T00:54:05.463Z,17.80
2018-07-24T00:55:05.335Z,17.80
2018-07-24T00:56:06.027Z,17.80
2018-07-24T00:57:10.446Z,17.80
2018-07-24T00:58:09.201Z,17.70
2018-07-24T00:59:05.647Z,17.70
2018-07-24T01:00:07.872Z,17.70
2018-07-24T01:01:08.592Z,17.70
2018-07-24T01:02:11.015Z,17.70
2018-07-24T01:03:06.073Z,17.70
2018-07-24T01:04:09.336Z,17.70
2018-07-24T01:05:10.682Z,17.60
2018-07-24T01:06:05.676Z,17.70
2018-07-24T01:07:11.032Z,17.60
2018-07-24T01:08:07.804Z,17.70
2018-07-24T01:09:07.719Z,17.70
2018-07-24T01:10:05.132Z,17.70
2018-07-24T01:11:08.517Z,17.70
2018-07-24T01:12:08.502Z,17.70
2018-07-24T01:13:05.850Z,17.70
2018-07-24T01:14:10.346Z,17.70
2018-07-24T01:15:05.670Z,17.70
2018-07-24T01:16:05.660Z,17.70
2018-07-24T01:17:09.265Z,17.60
2018-07-24T01:18:09.090Z,17.70
2018-07-24T01:19:10.858Z,17.70
2018-07-24T01:20:05.269Z,17.60
2018-07-24T01:21:06.163Z,17.60
2018-07-24T01:22:09.115Z,17.60
2018-07-24T01:23:05.644Z,17.60
2018-07-24T01:24:05.526Z,17.60
2018-07-24T01:25:08.568Z,17.60
2018-07-24T01:26:09.226Z,17.50
2018-07-24T01:27:05.700Z,17.50
2018-07-24T01:28:07.683Z,17.50
2018-07-24T01:29:05.108Z,17.50
2018-07-24T01:30:05.537Z,17.40
2018-07-24T01:31:06.183Z,17.50
2018-07-24T01:32:05.648Z,17.50
2018-07-24T01:33:05.484Z,17.40
2018-07-24T01:34:08.629Z,17.40
2018-07-24T01:35:06.111Z,17.40
2018-07-24T01:36:06.041Z,17.40
2018-07-24T01:37:05.652Z,17.40
2018-07-24T01:38:06.100Z,17.40
2018-07-24T01:39:05.229Z,17.40
2018-07-24T01:40:05.623Z,17.40
2018-07-24T01:41:05.443Z,17.40
2018-07-24T01:42:05.928Z,17.40
2018-07-24T01:43:09.046Z,17.40
2018-07-24T01:44:05.682Z,17.40
2018-07-24T01:45:05.523Z,17.40
2018-07-24T01:46:05.427Z,17.40
2018-07-24T01:47:05.329Z,17.40
2018-07-24T01:48:05.315Z,17.40
2018-07-24T01:49:07.615Z,17.40
2018-07-24T01:50:06.420Z,17.40
2018-07-24T01:51:08.384Z,17.30
2018-07-24T01:52:09.093Z,17.30
2018-07-24T01:53:10.571Z,17.30
2018-07-24T01:54:05.507Z,17.40
2018-07-24T01:55:10.401Z,17.30
2018-07-24T01:56:10.823Z,17.30
2018-07-24T01:57:10.271Z,17.30
2018-07-24T01:58:05.251Z,17.30
2018-07-24T01:59:05.517Z,17.20
2018-07-24T02:00:10.858Z,17.20
2018-07-24T02:01:07.801Z,17.20
2018-07-24T02:02:05.175Z,17.20
2018-07-24T02:03:05.883Z,17.20
2018-07-24T02:04:06.107Z,17.20
2018-07-24T02:05:05.140Z,17.20
2018-07-24T02:06:05.265Z,17.20
2018-07-24T02:07:08.979Z,17.20
2018-07-24T02:08:05.368Z,17.10
2018-07-24T02:09:05.922Z,17.20
2018-07-24T02:10:06.194Z,17.20
2018-07-24T02:11:05.902Z,17.20
2018-07-24T02:12:05.827Z,17.10
2018-07-24T02:13:05.513Z,17.10
2018-07-24T02:14:05.619Z,17.10
2018-07-24T02:15:08.480Z,17.10
2018-07-24T02:16:06.180Z,17.10
2018-07-24T02:17:08.300Z,17.10
2018-07-24T02:18:05.696Z,17.10
2018-07-24T02:19:13.125Z,17.10
2018-07-24T02:20:10.478Z,17.10
2018-07-24T02:21:08.835Z,17.20
2018-07-24T02:22:05.290Z,17.10
2018-07-24T02:23:08.286Z,17.10
2018-07-24T02:24:05.441Z,17.10
2018-07-24T02:25:06.222Z,17.10
2018-07-24T02:26:05.412Z,17.20
2018-07-24T02:27:10.302Z,17.10
2018-07-24T02:28:08.764Z,17.10
2018-07-24T02:29:05.709Z,17.10
2018-07-24T02:30:11.540Z,17.10
2018-07-24T02:31:06.125Z,17.10
2018-07-24T02:32:09.410Z,17.10
2018-07-24T02:33:09.082Z,17.00
2018-07-24T02:34:05.466Z,17.00
2018-07-24T02:35:05.634Z,17.00
2018-07-24T02:36:10.251Z,17.00
2018-07-24T02:37:05.714Z,17.00
2018-07-24T02:38:08.289Z,17.00
2018-07-24T02:39:05.715Z,17.00
2018-07-24T02:40:05.770Z,17.00
2018-07-24T02:41:05.335Z,17.00
2018-07-24T02:42:05.281Z,16.90
2018-07-24T02:43:06.345Z,16.90
2018-07-24T02:44:05.194Z,16.90
2018-07-24T02:45:05.830Z,16.90
2018-07-24T02:46:08.743Z,16.90
2018-07-24T02:47:05.067Z,16.80
2018-07-24T02:48:05.750Z,16.80
2018-07-24T02:49:08.534Z,16.70
2018-07-24T02:50:05.924Z,16.70
2018-07-24T02:51:10.863Z,16.80
2018-07-24T02:52:08.263Z,16.70
2018-07-24T02:53:05.573Z,16.70
2018-07-24T02:54:05.314Z,16.70
2018-07-24T02:55:10.945Z,16.70
2018-07-24T02:56:08.430Z,16.70
2018-07-24T02:57:09.126Z,16.70
2018-07-24T02:58:08.081Z,16.70
2018-07-24T02:59:10.500Z,16.70
2018-07-24T03:00:06.037Z,16.70
2018-07-24T03:01:08.757Z,16.70
2018-07-24T03:02:05.247Z,16.60
2018-07-24T03:03:06.528Z,16.70
2018-07-24T03:04:06.341Z,16.60
2018-07-24T03:05:05.223Z,16.60
2018-07-24T03:06:05.270Z,16.60
2018-07-24T03:07:05.814Z,16.60
2018-07-24T03:08:05.341Z,16.60
2018-07-24T03:09:05.225Z,16.60
2018-07-24T03:10:10.945Z,16.50
2018-07-24T03:11:11.022Z,16.60
2018-07-24T03:12:08.651Z,16.60
2018-07-24T03:13:05.316Z,16.50
2018-07-24T03:14:09.776Z,16.50
2018-07-24T03:15:05.477Z,16.50
2018-07-24T03:16:05.887Z,16.60
2018-07-24T03:17:05.717Z,16.60
2018-07-24T03:18:06.006Z,16.50
2018-07-24T03:19:05.697Z,16.50
2018-07-24T03:20:08.429Z,16.50
2018-07-24T03:21:06.244Z,16.50
2018-07-24T03:22:05.815Z,16.50
2018-07-24T03:23:05.618Z,16.50
2018-07-24T03:24:05.951Z,16.40
2018-07-24T03:25:05.823Z,16.40
2018-07-24T03:26:05.315Z,16.40
2018-07-24T03:27:07.899Z,16.40
2018-07-24T03:28:05.264Z,16.40
2018-07-24T03:29:05.240Z,16.40
2018-07-24T03:30:06.435Z,16.50
2018-07-24T03:31:09.562Z,16.40
2018-07-24T03:32:06.158Z,16.40
2018-07-24T03:33:05.909Z,16.40
2018-07-24T03:34:08.575Z,16.30
2018-07-24T03:35:06.120Z,16.30
2018-07-24T03:36:08.351Z,16.30
2018-07-24T03:37:06.193Z,16.30
2018-07-24T03:38:07.869Z,16.30
2018-07-24T03:39:05.179Z,16.20
2018-07-24T03:40:05.254Z,16.20
2018-07-24T03:41:05.658Z,16.20
2018-07-24T03:42:11.153Z,16.20
2018-07-24T03:43:05.592Z,16.20
2018-07-24T03:44:10.780Z,16.20
2018-07-24T03:45:10.382Z,16.20
2018-07-24T03:46:05.983Z,16.30
2018-07-24T03:47:05.611Z,16.30
2018-07-24T03:48:05.532Z,16.20
2018-07-24T03:49:05.529Z,16.20
2018-07-24T03:50:05.620Z,16.20
2018-07-24T03:51:05.212Z,16.20
2018-07-24T03:52:08.575Z,16.20
2018-07-24T03:53:05.998Z,16.20
2018-07-24T03:54:08.861Z,16.30
2018-07-24T03:55:05.403Z,16.30
2018-07-24T03:56:06.297Z,16.30
2018-07-24T03:57:05.264Z,16.20
2018-07-24T03:58:05.415Z,16.30
2018-07-24T03:59:09.110Z,16.30
2018-07-24T04:00:05.499Z,16.30
2018-07-24T04:01:05.752Z,16.40
2018-07-24T04:02:05.653Z,16.30
2018-07-24T04:03:05.920Z,16.40
2018-07-24T04:04:05.987Z,16.40
2018-07-24T04:05:05.117Z,16.40
2018-07-24T04:06:05.320Z,16.40
2018-07-24T04:07:06.464Z,16.40
2018-07-24T04:08:08.766Z,16.50
2018-07-24T04:09:05.391Z,16.50
2018-07-24T04:10:05.691Z,16.60
2018-07-24T04:11:05.520Z,16.60
2018-07-24T04:12:05.748Z,16.70
2018-07-24T04:13:08.664Z,16.80
2018-07-24T04:14:08.931Z,16.80
2018-07-24T04:15:05.327Z,16.80
2018-07-24T04:16:06.199Z,16.80
2018-07-24T04:17:08.685Z,16.90
2018-07-24T04:18:05.442Z,17.00
2018-07-24T04:19:10.414Z,17.10
2018-07-24T04:20:05.728Z,17.20
2018-07-24T04:21:09.060Z,17.30
2018-07-24T04:22:05.888Z,17.30
2018-07-24T04:23:05.339Z,17.40
2018-07-24T04:24:05.436Z,17.50
2018-07-24T04:25:08.562Z,17.80
2018-07-24T04:26:08.959Z,17.90
2018-07-24T04:27:05.420Z,17.90
2018-07-24T04:28:08.460Z,18.10
2018-07-24T04:29:05.891Z,18.10
2018-07-24T04:30:05.851Z,18.20
2018-07-24T04:31:10.587Z,18.50
2018-07-24T04:32:08.870Z,18.60
2018-07-24T04:33:08.694Z,18.80
2018-07-24T04:34:08.540Z,18.90
2018-07-24T04:35:05.543Z,18.90
2018-07-24T04:36:08.870Z,19.20
2018-07-24T04:37:08.328Z,19.30
2018-07-24T04:38:05.835Z,19.40
2018-07-24T04:39:05.223Z,19.40
2018-07-24T04:40:05.872Z,19.60
2018-07-24T04:41:05.637Z,19.60
2018-07-24T04:42:05.127Z,19.80
2018-07-24T04:43:05.857Z,20.00
2018-07-24T04:44:08.127Z,20.20
2018-07-24T04:45:05.592Z,20.10
2018-07-24T04:46:05.541Z,20.30
2018-07-24T04:47:05.585Z,20.50
2018-07-24T04:48:05.404Z,20.60
2018-07-24T04:49:08.671Z,20.80
2018-07-24T04:50:05.077Z,20.80
2018-07-24T04:51:08.249Z,21.00
2018-07-24T04:52:05.839Z,21.10
2018-07-24T04:53:07.049Z,21.20
2018-07-24T04:54:05.853Z,21.30
2018-07-24T04:55:05.344Z,21.40
2018-07-24T04:56:06.504Z,21.60
2018-07-24T04:57:05.945Z,21.60
2018-07-24T04:58:05.886Z,21.70
2018-07-24T04:59:05.993Z,21.80
2018-07-24T05:00:05.421Z,21.90
2018-07-24T05:01:09.544Z,22.10
2018-07-24T05:02:06.275Z,22.00
2018-07-24T05:03:05.884Z,22.10
2018-07-24T05:04:05.470Z,22.20
2018-07-24T05:05:05.741Z,22.30
2018-07-24T05:06:05.763Z,22.40
2018-07-24T05:07:06.260Z,22.50
2018-07-24T05:08:09.285Z,22.70
2018-07-24T05:09:05.812Z,22.70
2018-07-24T05:10:05.428Z,22.80
2018-07-24T05:11:05.604Z,22.80
2018-07-24T05:12:05.347Z,22.90
2018-07-24T05:13:05.832Z,23.00
2018-07-24T05:14:05.766Z,23.10
2018-07-24T05:15:05.731Z,23.20
2018-07-24T05:16:05.392Z,23.30
2018-07-24T05:17:07.631Z,23.50
2018-07-24T05:18:11.072Z,23.60
2018-07-24T05:19:06.132Z,23.60
2018-07-24T05:20:06.360Z,23.70
2018-07-24T05:21:05.460Z,23.70
2018-07-24T05:22:05.905Z,23.80
2018-07-24T05:23:08.249Z,24.00
2018-07-24T05:24:05.683Z,24.00
2018-07-24T05:25:09.463Z,24.10
2018-07-24T05:26:05.883Z,24.10
2018-07-24T05:27:05.979Z,24.20
2018-07-24T05:28:07.621Z,24.40
2018-07-24T05:29:06.395Z,24.40
2018-07-24T05:30:10.754Z,24.50
2018-07-24T05:31:12.245Z,24.60
2018-07-24T05:32:05.789Z,24.60
2018-07-24T05:33:08.009Z,24.60
2018-07-24T05:34:05.942Z,24.70
2018-07-24T05:35:05.605Z,24.80
2018-07-24T05:36:05.432Z,24.80
2018-07-24T05:37:06.255Z,24.80
2018-07-24T05:38:05.199Z,24.90
2018-07-24T05:39:05.773Z,24.80
2018-07-24T05:40:05.545Z,24.90
2018-07-24T05:41:05.519Z,24.90
2018-07-24T05:42:05.272Z,24.90
2018-07-24T05:43:08.220Z,25.00
2018-07-24T05:44:05.837Z,25.00
2018-07-24T05:45:05.175Z,25.10
2018-07-24T05:46:05.329Z,25.10
2018-07-24T05:47:06.287Z,25.10
2018-07-24T05:48:05.388Z,25.30
2018-07-24T05:49:06.028Z,25.30
2018-07-24T05:50:16.015Z,25.40
2018-07-24T05:51:05.892Z,25.40
2018-07-24T05:52:10.827Z,25.50
2018-07-24T05:53:08.450Z,25.50
2018-07-24T05:54:05.843Z,25.50
2018-07-24T05:55:05.861Z,25.50
2018-07-24T05:56:06.042Z,25.60
2018-07-24T05:57:13.208Z,25.70
2018-07-24T05:58:05.728Z,25.70
2018-07-24T05:59:08.780Z,25.90
2018-07-24T06:00:05.498Z,25.90
2018-07-24T06:01:08.398Z,26.00
2018-07-24T06:02:05.768Z,26.10
2018-07-24T06:03:10.531Z,26.20
2018-07-24T06:04:06.388Z,26.20
2018-07-24T06:05:08.589Z,26.30
2018-07-24T06:06:06.399Z,26.20
2018-07-24T06:07:05.299Z,26.40
2018-07-24T06:08:06.343Z,26.40
2018-07-24T06:09:06.008Z,26.50
2018-07-24T06:10:05.648Z,26.50
2018-07-24T06:11:05.157Z,26.60
2018-07-24T06:12:05.309Z,26.60
2018-07-24T06:13:05.495Z,26.70
2018-07-24T06:14:05.195Z,26.80
2018-07-24T06:15:07.869Z,26.80
2018-07-24T06:16:05.235Z,26.80
2018-07-24T06:17:10.432Z,26.90
2018-07-24T06:18:05.617Z,26.90
2018-07-24T06:19:05.417Z,27.00
2018-07-24T06:20:05.084Z,27.00
2018-07-24T06:21:08.896Z,27.10
2018-07-24T06:22:07.889Z,27.20
2018-07-24T06:23:05.256Z,27.10
2018-07-24T06:24:05.649Z,27.20
2018-07-24T06:25:05.719Z,27.20
2018-07-24T06:26:05.677Z,27.30
2018-07-24T06:27:10.726Z,27.40
2018-07-24T06:28:08.775Z,27.40
2018-07-24T06:29:05.321Z,27.50
2018-07-24T06:30:11.659Z,27.50
2018-07-24T06:31:06.123Z,27.50
2018-07-24T06:32:06.120Z,27.60
2018-07-24T06:33:05.653Z,27.60
2018-07-24T06:34:06.174Z,27.60
2018-07-24T06:35:06.385Z,27.70
2018-07-24T06:36:09.096Z,27.70
2018-07-24T06:37:05.474Z,27.70
2018-07-24T06:38:05.177Z,27.70
2018-07-24T06:39:05.462Z,27.80
2018-07-24T06:40:05.159Z,27.80
2018-07-24T06:41:05.344Z,27.80
2018-07-24T06:42:06.011Z,27.80
2018-07-24T06:43:06.243Z,27.80
2018-07-24T06:44:05.738Z,27.80
2018-07-24T06:45:05.916Z,27.80
2018-07-24T06:46:05.599Z,27.90
2018-07-24T06:47:05.573Z,27.90
2018-07-24T06:48:05.635Z,27.90
2018-07-24T06:49:08.563Z,28.00
2018-07-24T06:50:06.024Z,28.00
2018-07-24T06:51:05.914Z,28.00
2018-07-24T06:52:05.115Z,28.10
2018-07-24T06:53:10.258Z,28.20
2018-07-24T06:54:13.690Z,28.20
2018-07-24T06:55:08.561Z,28.20
2018-07-24T06:56:05.924Z,28.20
2018-07-24T06:57:10.571Z,28.20
2018-07-24T06:58:05.215Z,28.20
2018-07-24T06:59:09.411Z,28.30
2018-07-24T07:00:10.884Z,28.30
2018-07-24T07:01:05.958Z,28.40
2018-07-24T07:02:05.770Z,28.40
2018-07-24T07:03:11.024Z,28.40
2018-07-24T07:04:10.631Z,28.50
2018-07-24T07:05:05.905Z,28.50
2018-07-24T07:06:05.158Z,28.50
2018-07-24T07:07:06.006Z,28.50
2018-07-24T07:08:05.989Z,28.50
2018-07-24T07:09:05.276Z,28.50
2018-07-24T07:10:05.377Z,28.50
2018-07-24T07:11:05.324Z,28.50
2018-07-24T07:12:05.582Z,28.50
2018-07-24T07:13:05.496Z,28.60
2018-07-24T07:14:06.228Z,28.60
2018-07-24T07:15:05.601Z,28.70
2018-07-24T07:16:05.130Z,28.70
2018-07-24T07:17:05.916Z,28.80
2018-07-24T07:18:05.841Z,28.80
2018-07-24T07:19:05.538Z,28.80
2018-07-24T07:20:08.042Z,28.80
2018-07-24T07:21:05.400Z,28.80
2018-07-24T07:22:06.152Z,28.80
2018-07-24T07:23:05.780Z,28.80
2018-07-24T07:24:05.331Z,28.70
2018-07-24T07:25:05.303Z,28.70
2018-07-24T07:26:08.482Z,28.70
2018-07-24T07:27:08.653Z,28.80
2018-07-24T07:28:06.049Z,28.80
2018-07-24T07:29:05.704Z,28.80
2018-07-24T07:30:06.519Z,28.80
2018-07-24T07:31:09.096Z,28.90
2018-07-24T07:32:08.192Z,28.80
2018-07-24T07:33:05.577Z,28.80
2018-07-24T07:34:10.588Z,28.90
2018-07-24T07:35:05.787Z,29.00
2018-07-24T07:36:11.106Z,28.90
2018-07-24T07:37:05.510Z,29.00
2018-07-24T07:38:05.299Z,29.00
2018-07-24T07:39:06.014Z,29.00
2018-07-24T07:40:05.711Z,29.10
2018-07-24T07:41:06.008Z,29.10
2018-07-24T07:42:12.999Z,29.20
2018-07-24T07:43:05.785Z,29.20
2018-07-24T07:44:05.927Z,29.20
2018-07-24T07:45:05.392Z,29.20
2018-07-24T07:46:05.219Z,29.20
2018-07-24T07:47:05.552Z,29.20
2018-07-24T07:48:05.140Z,29.20
2018-07-24T07:49:10.830Z,29.30
2018-07-24T07:50:05.914Z,29.30
2018-07-24T07:51:05.905Z,29.20
2018-07-24T07:52:05.664Z,29.20
2018-07-24T07:53:05.272Z,29.30
2018-07-24T07:54:08.392Z,29.30
2018-07-24T07:55:09.180Z,29.30
2018-07-24T07:56:05.572Z,29.30
2018-07-24T07:57:05.175Z,29.30
2018-07-24T07:58:05.790Z,29.30
2018-07-24T07:59:05.537Z,29.20
2018-07-24T08:00:05.716Z,29.20
2018-07-24T08:01:08.547Z,29.20
2018-07-24T08:02:06.013Z,29.20
2018-07-24T08:03:05.384Z,29.20
2018-07-24T08:04:08.219Z,29.20
2018-07-24T08:05:06.089Z,29.20
2018-07-24T08:06:09.014Z,29.10
2018-07-24T08:07:05.442Z,29.20
2018-07-24T08:08:10.376Z,29.10
2018-07-24T08:09:08.970Z,29.10
2018-07-24T08:10:05.497Z,29.00
2018-07-24T08:11:05.905Z,29.10
2018-07-24T08:12:05.406Z,29.00
2018-07-24T08:13:09.299Z,29.10
2018-07-24T08:14:05.813Z,29.10
2018-07-24T08:15:10.864Z,29.10
2018-07-24T08:16:05.189Z,29.10
2018-07-24T08:17:10.287Z,29.10
2018-07-24T08:18:07.788Z,29.00
2018-07-24T08:19:05.159Z,29.00
2018-07-24T08:20:05.287Z,29.00
2018-07-24T08:21:08.873Z,29.00
2018-07-24T08:22:05.256Z,29.00
2018-07-24T08:23:06.294Z,29.00
2018-07-24T08:24:07.970Z,29.10
2018-07-24T08:25:05.348Z,29.10
2018-07-24T08:26:09.434Z,29.20
2018-07-24T08:27:05.969Z,29.20
2018-07-24T08:28:06.157Z,29.30
2018-07-24T08:29:05.794Z,29.20
2018-07-24T08:30:05.486Z,29.20
2018-07-24T08:31:05.301Z,29.20
2018-07-24T08:32:07.709Z,29.30
2018-07-24T08:33:08.599Z,29.30
2018-07-24T08:34:06.148Z,29.30
2018-07-24T08:35:08.635Z,29.40
2018-07-24T08:36:05.413Z,29.40
2018-07-24T08:37:08.495Z,29.40
2018-07-24T08:38:05.865Z,29.40
2018-07-24T08:39:10.649Z,29.40
2018-07-24T08:40:05.805Z,29.40
2018-07-24T08:41:09.180Z,29.40
2018-07-24T08:42:05.600Z,29.40
2018-07-24T08:43:05.283Z,29.50
2018-07-24T08:44:09.173Z,29.50
2018-07-24T08:45:05.648Z,29.60
2018-07-24T08:46:05.736Z,29.50
2018-07-24T08:47:05.209Z,29.60
2018-07-24T08:48:06.024Z,29.60
2018-07-24T08:49:05.439Z,29.60
2018-07-24T08:50:05.138Z,29.70
2018-07-24T08:51:09.868Z,29.70
2018-07-24T08:52:07.820Z,29.70
2018-07-24T08:53:05.242Z,29.70
2018-07-24T08:54:06.089Z,29.60
2018-07-24T08:55:05.645Z,29.60
2018-07-24T08:56:06.101Z,29.60
2018-07-24T08:57:06.997Z,29.70
2018-07-24T08:58:05.591Z,29.70
2018-07-24T08:59:05.321Z,29.70
2018-07-24T09:00:06.310Z,29.70
2018-07-24T09:01:05.486Z,29.60
2018-07-24T09:02:05.345Z,29.60
2018-07-24T09:03:05.678Z,29.60
2018-07-24T09:04:10.482Z,29.60
2018-07-24T09:05:05.724Z,29.60
2018-07-24T09:06:05.195Z,29.60
2018-07-24T09:07:05.944Z,29.60
2018-07-24T09:08:05.186Z,29.70
2018-07-24T09:09:10.941Z,29.70
2018-07-24T09:10:05.374Z,29.80
2018-07-24T09:11:05.098Z,29.90
2018-07-24T09:12:05.346Z,29.90
2018-07-24T09:13:05.225Z,30.00
2018-07-24T09:14:05.058Z,30.00
2018-07-24T09:15:08.748Z,30.10
2018-07-24T09:16:05.236Z,30.10
2018-07-24T09:17:10.384Z,30.10
2018-07-24T09:18:05.781Z,30.10
2018-07-24T09:19:05.304Z,30.10
2018-07-24T09:20:05.784Z,30.10
2018-07-24T09:21:05.517Z,30.10
2018-07-24T09:22:05.626Z,30.10
2018-07-24T09:23:05.605Z,30.00
2018-07-24T09:24:08.090Z,30.10
2018-07-24T09:25:05.367Z,30.00
2018-07-24T09:26:05.939Z,30.00
2018-07-24T09:27:06.053Z,30.00
2018-07-24T09:28:07.712Z,29.90
2018-07-24T09:29:05.136Z,29.80
2018-07-24T09:30:10.995Z,29.70
2018-07-24T09:31:08.386Z,29.70
2018-07-24T09:32:09.261Z,29.70
2018-07-24T09:33:05.889Z,29.70
2018-07-24T09:34:07.966Z,29.80
2018-07-24T09:35:05.359Z,29.80
2018-07-24T09:36:10.860Z,29.80
2018-07-24T09:37:05.380Z,29.90
2018-07-24T09:38:05.785Z,30.00
2018-07-24T09:39:05.389Z,30.10
2018-07-24T09:40:05.111Z,30.20
2018-07-24T09:41:05.072Z,30.20
2018-07-24T09:42:05.702Z,30.20
2018-07-24T09:43:05.153Z,30.30
2018-07-24T09:44:05.765Z,30.30
2018-07-24T09:45:05.530Z,30.40
2018-07-24T09:46:05.101Z,30.40
2018-07-24T09:47:05.752Z,30.50
2018-07-24T09:48:05.452Z,30.50
2018-07-24T09:49:05.638Z,30.50
2018-07-24T09:50:08.865Z,30.60
2018-07-24T09:51:05.725Z,30.60
2018-07-24T09:52:06.011Z,30.60
2018-07-24T09:53:05.831Z,30.70
2018-07-24T09:54:05.388Z,30.70
2018-07-24T09:55:06.039Z,30.70
2018-07-24T09:56:05.851Z,30.70
2018-07-24T09:57:05.413Z,30.70
2018-07-24T09:58:05.709Z,30.70
2018-07-24T09:59:05.896Z,30.80
2018-07-24T10:00:05.621Z,30.80
2018-07-24T10:01:05.290Z,30.80
2018-07-24T10:02:05.990Z,30.90
2018-07-24T10:03:08.281Z,31.00
2018-07-24T10:04:08.141Z,31.00
2018-07-24T10:05:05.641Z,30.90
2018-07-24T10:06:08.495Z,30.80
2018-07-24T10:07:05.882Z,30.90
2018-07-24T10:08:08.886Z,30.80
2018-07-24T10:09:05.700Z,30.80
2018-07-24T10:10:05.837Z,30.80
2018-07-24T10:11:06.024Z,30.80
2018-07-24T10:12:10.426Z,30.70
2018-07-24T10:13:05.941Z,30.70
2018-07-24T10:14:05.633Z,30.80
2018-07-24T10:15:10.172Z,30.70
2018-07-24T10:16:06.462Z,30.70
2018-07-24T10:17:06.012Z,30.70
2018-07-24T10:18:05.550Z,30.60
2018-07-24T10:19:05.041Z,25.60
2018-07-24T10:20:05.868Z,30.60
2018-07-24T10:21:05.795Z,30.60
2018-07-24T10:22:05.290Z,30.60
2018-07-24T10:23:09.827Z,30.60
2018-07-24T10:24:05.255Z,30.60
2018-07-24T10:25:10.580Z,30.70
2018-07-24T10:26:05.830Z,30.70
2018-07-24T10:27:05.584Z,30.70
2018-07-24T10:28:10.358Z,30.70
2018-07-24T10:29:07.876Z,30.70
2018-07-24T10:30:05.415Z,30.70
2018-07-24T10:31:05.403Z,30.80
2018-07-24T10:32:05.372Z,30.80
2018-07-24T10:33:05.501Z,30.80
2018-07-24T10:34:09.116Z,30.70
2018-07-24T10:35:10.534Z,30.70
2018-07-24T10:36:08.343Z,30.80
2018-07-24T10:37:05.654Z,30.70
2018-07-24T10:38:05.706Z,30.70
2018-07-24T10:39:05.715Z,30.70
2018-07-24T10:40:05.698Z,30.70
2018-07-24T10:41:05.554Z,30.70
2018-07-24T10:42:11.047Z,30.70
2018-07-24T10:43:05.241Z,30.70
2018-07-24T10:44:06.501Z,30.70
2018-07-24T10:45:05.237Z,30.70
2018-07-24T10:46:05.760Z,30.70
2018-07-24T10:47:05.991Z,30.80
2018-07-24T10:48:05.307Z,30.80
2018-07-24T10:49:10.829Z,30.80
2018-07-24T10:50:05.262Z,30.90
2018-07-24T10:51:08.264Z,30.90
2018-07-24T10:52:10.149Z,30.90
2018-07-24T10:53:05.616Z,30.90
2018-07-24T10:54:05.039Z,30.90
2018-07-24T10:55:05.746Z,30.90
2018-07-24T10:56:05.727Z,31.00
2018-07-24T10:57:08.787Z,31.00
2018-07-24T10:58:05.185Z,30.90
2018-07-24T10:59:08.423Z,30.90
2018-07-24T11:00:09.248Z,30.90
2018-07-24T11:01:08.263Z,30.90
2018-07-24T11:02:08.183Z,30.80
2018-07-24T11:03:05.619Z,30.90
2018-07-24T11:04:05.996Z,30.90
2018-07-24T11:05:05.880Z,30.90
2018-07-24T11:06:05.525Z,30.90
2018-07-24T11:07:10.774Z,30.90
2018-07-24T11:08:06.023Z,31.00
2018-07-24T11:09:05.522Z,30.90
2018-07-24T11:10:08.918Z,31.00
2018-07-24T11:11:05.438Z,30.90
2018-07-24T11:12:05.768Z,31.00
2018-07-24T11:13:05.429Z,31.00
2018-07-24T11:14:08.766Z,31.10
2018-07-24T11:15:05.227Z,31.10
2018-07-24T11:16:05.454Z,31.20
2018-07-24T11:17:09.377Z,31.40
2018-07-24T11:18:10.996Z,31.30
2018-07-24T11:19:05.371Z,31.40
2018-07-24T11:20:06.053Z,31.40
2018-07-24T11:21:05.579Z,31.40
2018-07-24T11:22:05.972Z,31.40
2018-07-24T11:23:06.011Z,31.40
2018-07-24T11:24:05.850Z,31.40
2018-07-24T11:25:05.391Z,31.40
2018-07-24T11:26:05.323Z,31.40
2018-07-24T11:27:05.278Z,31.30
2018-07-24T11:28:08.787Z,31.30
2018-07-24T11:29:05.360Z,31.30
2018-07-24T11:30:05.843Z,31.30
2018-07-24T11:31:08.674Z,31.30
2018-07-24T11:32:05.073Z,31.30
2018-07-24T11:33:10.996Z,31.20
2018-07-24T11:34:05.392Z,31.30
2018-07-24T11:35:07.621Z,31.30
2018-07-24T11:36:06.103Z,31.20
2018-07-24T11:37:05.173Z,31.20
2018-07-24T11:38:05.297Z,31.30
2018-07-24T11:39:08.317Z,31.40
2018-07-24T11:40:05.651Z,31.40
2018-07-24T11:41:05.363Z,31.40
2018-07-24T11:42:07.757Z,31.50
2018-07-24T11:43:05.382Z,31.50
2018-07-24T11:44:05.279Z,31.50
2018-07-24T11:45:05.901Z,31.50
2018-07-24T11:46:05.704Z,31.60
2018-07-24T11:47:06.444Z,31.60
2018-07-24T11:48:05.792Z,31.60
2018-07-24T11:49:10.402Z,31.60
2018-07-24T11:50:05.819Z,31.60
2018-07-24T11:51:05.578Z,31.60
2018-07-24T11:52:10.691Z,31.50
2018-07-24T11:53:05.199Z,31.50
2018-07-24T11:54:05.525Z,31.50
2018-07-24T11:55:10.764Z,31.50
2018-07-24T11:56:16.160Z,31.50
2018-07-24T11:57:05.537Z,31.50
2018-07-24T11:58:05.570Z,31.50
2018-07-24T11:59:05.872Z,31.50
2018-07-24T12:00:05.246Z,31.50
2018-07-24T12:01:09.458Z,31.50
2018-07-24T12:02:05.841Z,31.40
2018-07-24T12:03:05.460Z,31.40
2018-07-24T12:04:05.316Z,31.40
2018-07-24T12:05:06.220Z,31.40
2018-07-24T12:06:08.841Z,31.40
2018-07-24T12:07:05.260Z,31.40
2018-07-24T12:08:10.615Z,31.50
2018-07-24T12:09:05.845Z,31.50
2018-07-24T12:10:05.503Z,31.50
2018-07-24T12:11:05.741Z,31.50
2018-07-24T12:12:05.380Z,31.50
2018-07-24T12:13:05.465Z,31.50
2018-07-24T12:14:05.532Z,31.50
2018-07-24T12:15:10.665Z,31.50
2018-07-24T12:16:05.633Z,31.50
2018-07-24T12:17:06.428Z,31.60
2018-07-24T12:18:05.656Z,31.60
2018-07-24T12:19:08.605Z,31.60
2018-07-24T12:20:05.167Z,31.60
2018-07-24T12:21:06.163Z,31.60
2018-07-24T12:22:05.328Z,31.60
2018-07-24T12:23:05.709Z,31.60
2018-07-24T12:24:08.969Z,31.60
2018-07-24T12:25:05.441Z,31.60
2018-07-24T12:26:08.907Z,31.50
2018-07-24T12:27:08.894Z,31.60
2018-07-24T12:28:05.762Z,31.60
2018-07-24T12:29:05.940Z,31.60
2018-07-24T12:30:06.029Z,31.60
2018-07-24T12:31:05.186Z,31.70
2018-07-24T12:32:09.618Z,31.80
2018-07-24T12:33:06.391Z,31.70
2018-07-24T12:34:08.597Z,31.80
2018-07-24T12:35:10.338Z,31.80
2018-07-24T12:36:06.007Z,31.80
2018-07-24T12:37:05.835Z,31.90
2018-07-24T12:38:09.426Z,32.00
2018-07-24T12:39:08.546Z,31.90
2018-07-24T12:40:08.927Z,32.00
2018-07-24T12:41:05.360Z,31.90
2018-07-24T12:42:05.194Z,31.90
2018-07-24T12:43:10.268Z,31.90
2018-07-24T12:44:05.545Z,32.00
2018-07-24T12:45:08.921Z,32.00
2018-07-24T12:46:08.625Z,32.00
2018-07-24T12:47:05.047Z,32.00
2018-07-24T12:48:05.932Z,32.00
2018-07-24T12:49:05.573Z,32.00
2018-07-24T12:50:05.288Z,31.90
2018-07-24T12:51:05.294Z,32.00
2018-07-24T12:52:05.594Z,32.00